sensor_id;sensor_type;location;lat;lon;timestamp;temperature;humidity
31311;DHT22;17937;51.508;7.534;2022-11-14T00:00:26;5.80;99.90
31311;DHT22;17937;51.508;7.534;2022-11-14T00:02:52;5.80;99.90
31311;DHT22;17937;51.508;7.534;2022-11-14T00:05:18;5.70;99.90
31311;DHT22;17937;51.508;7.534;2022-11-14T00:07:44;5.70;99.90
31311;DHT22;17937;51.508;7.534;2022-11-14T00:10:12;5.60;99.90
31311;DHT22;17937;51.508;7.534;2022-11-14T00:12:38;5.50;99.90
31311;DHT22;17937;51.508;7.534;2022-11-14T00:15:03;5.50;99.90
31311;DHT22;17937;51.508;7.534;2022-11-14T00:17:29;5.50;99.90
31311;DHT22;17937;51.508;7.534;2022-11-14T00:19:55;5.50;99.90
31311;DHT22;17937;51.508;7.534;2022-11-14T00:22:20;5.70;99.90
31311;DHT22;17937;51.508;7.534;2022-11-14T00:24:46;5.70;99.90
31311;DHT22;17937;51.508;7.534;2022-11-14T00:27:11;5.60;99.90
31311;DHT22;17937;51.508;7.534;2022-11-14T00:29:37;5.40;99.90
31311;DHT22;17937;51.508;7.534;2022-11-14T00:32:03;5.40;99.90
31311;DHT22;17937;51.508;7.534;2022-11-14T00:34:28;5.30;99.90
31311;DHT22;17937;51.508;7.534;2022-11-14T00:36:54;5.30;99.90
31311;DHT22;17937;51.508;7.534;2022-11-14T00:39:19;5.40;99.90
31311;DHT22;17937;51.508;7.534;2022-11-14T00:41:45;5.40;99.90
31311;DHT22;17937;51.508;7.534;2022-11-14T00:44:10;5.30;99.90
31311;DHT22;17937;51.508;7.534;2022-11-14T00:46:36;5.30;99.90
31311;DHT22;17937;51.508;7.534;2022-11-14T00:49:03;5.20;99.90
31311;DHT22;17937;51.508;7.534;2022-11-14T00:51:28;5.20;99.90
31311;DHT22;17937;51.508;7.534;2022-11-14T00:53:54;5.10;99.90
31311;DHT22;17937;51.508;7.534;2022-11-14T00:56:20;5.10;99.90
31311;DHT22;17937;51.508;7.534;2022-11-14T00:58:45;5.10;99.90
31311;DHT22;17937;51.508;7.534;2022-11-14T01:01:11;5.10;99.90
31311;DHT22;17937;51.508;7.534;2022-11-14T01:03:36;5.10;99.90
31311;DHT22;17937;51.508;7.534;2022-11-14T01:06:04;5.00;99.90
31311;DHT22;17937;51.508;7.534;2022-11-14T01:08:30;5.00;99.90
31311;DHT22;17937;51.508;7.534;2022-11-14T01:10:56;5.00;99.90
31311;DHT22;17937;51.508;7.534;2022-11-14T01:13:22;5.00;99.90
31311;DHT22;17937;51.508;7.534;2022-11-14T01:15:48;5.00;99.90
31311;DHT22;17937;51.508;7.534;2022-11-14T01:18:17;4.90;99.90
31311;DHT22;17937;51.508;7.534;2022-11-14T01:20:44;4.90;99.90
31311;DHT22;17937;51.508;7.534;2022-11-14T01:23:11;4.90;99.90
31311;DHT22;17937;51.508;7.534;2022-11-14T01:25:38;4.80;99.90
31311;DHT22;17937;51.508;7.534;2022-11-14T01:28:06;4.90;99.90
31311;DHT22;17937;51.508;7.534;2022-11-14T01:30:32;4.90;99.90
31311;DHT22;17937;51.508;7.534;2022-11-14T01:32:58;4.80;99.90
31311;DHT22;17937;51.508;7.534;2022-11-14T01:35:23;4.80;99.90
31311;DHT22;17937;51.508;7.534;2022-11-14T01:37:49;4.80;99.90
31311;DHT22;17937;51.508;7.534;2022-11-14T01:40:15;4.80;99.90
31311;DHT22;17937;51.508;7.534;2022-11-14T01:42:41;4.70;99.90
31311;DHT22;17937;51.508;7.534;2022-11-14T01:48:19;4.50;99.90
31311;DHT22;17937;51.508;7.534;2022-11-14T01:50:47;4.60;99.90
31311;DHT22;17937;51.508;7.534;2022-11-14T01:53:14;4.60;99.90
31311;DHT22;17937;51.508;7.534;2022-11-14T01:55:40;4.50;99.90
31311;DHT22;17937;51.508;7.534;2022-11-14T01:58:06;4.50;99.90
31311;DHT22;17937;51.508;7.534;2022-11-14T02:00:31;4.40;99.90
31311;DHT22;17937;51.508;7.534;2022-11-14T02:02:57;4.40;99.90
31311;DHT22;17937;51.508;7.534;2022-11-14T02:05:23;4.40;99.90
31311;DHT22;17937;51.508;7.534;2022-11-14T02:07:49;4.40;99.90
31311;DHT22;17937;51.508;7.534;2022-11-14T02:10:20;4.50;99.90
31311;DHT22;17937;51.508;7.534;2022-11-14T02:12:46;4.50;99.90
31311;DHT22;17937;51.508;7.534;2022-11-14T02:15:13;4.40;99.90
31311;DHT22;17937;51.508;7.534;2022-11-14T02:17:40;4.40;99.90
31311;DHT22;17937;51.508;7.534;2022-11-14T02:22:39;4.20;99.90
31311;DHT22;17937;51.508;7.534;2022-11-14T02:25:06;4.20;99.90
31311;DHT22;17937;51.508;7.534;2022-11-14T02:27:33;4.20;99.90
31311;DHT22;17937;51.508;7.534;2022-11-14T02:30:08;4.20;99.90
31311;DHT22;17937;51.508;7.534;2022-11-14T02:32:34;4.10;99.90
31311;DHT22;17937;51.508;7.534;2022-11-14T02:35:00;4.10;99.90
31311;DHT22;17937;51.508;7.534;2022-11-14T02:37:25;4.00;99.90
31311;DHT22;17937;51.508;7.534;2022-11-14T02:39:51;4.00;99.90
31311;DHT22;17937;51.508;7.534;2022-11-14T02:42:16;4.00;99.90
31311;DHT22;17937;51.508;7.534;2022-11-14T02:44:42;3.90;99.90
31311;DHT22;17937;51.508;7.534;2022-11-14T02:47:07;3.90;99.90
31311;DHT22;17937;51.508;7.534;2022-11-14T02:49:33;3.90;99.90
31311;DHT22;17937;51.508;7.534;2022-11-14T02:51:58;3.90;99.90
31311;DHT22;17937;51.508;7.534;2022-11-14T02:54:24;4.00;99.90
31311;DHT22;17937;51.508;7.534;2022-11-14T02:56:49;4.00;99.90
31311;DHT22;17937;51.508;7.534;2022-11-14T02:59:15;3.90;99.90
31311;DHT22;17937;51.508;7.534;2022-11-14T03:01:40;4.00;99.90
31311;DHT22;17937;51.508;7.534;2022-11-14T03:04:06;3.90;99.90
31311;DHT22;17937;51.508;7.534;2022-11-14T03:06:31;3.90;99.90
31311;DHT22;17937;51.508;7.534;2022-11-14T03:08:57;3.90;99.90
31311;DHT22;17937;51.508;7.534;2022-11-14T03:11:22;3.90;99.90
31311;DHT22;17937;51.508;7.534;2022-11-14T03:13:48;3.90;99.90
31311;DHT22;17937;51.508;7.534;2022-11-14T03:16:14;4.00;99.90
31311;DHT22;17937;51.508;7.534;2022-11-14T03:18:40;3.90;99.90
31311;DHT22;17937;51.508;7.534;2022-11-14T03:21:07;3.90;99.90
31311;DHT22;17937;51.508;7.534;2022-11-14T03:23:33;3.80;99.90
31311;DHT22;17937;51.508;7.534;2022-11-14T03:26:05;3.80;99.90
31311;DHT22;17937;51.508;7.534;2022-11-14T03:28:31;3.90;99.90
31311;DHT22;17937;51.508;7.534;2022-11-14T03:30:57;4.00;99.90
31311;DHT22;17937;51.508;7.534;2022-11-14T03:33:23;4.00;99.90
31311;DHT22;17937;51.508;7.534;2022-11-14T03:35:49;3.90;99.90
31311;DHT22;17937;51.508;7.534;2022-11-14T03:38:16;3.90;99.90
31311;DHT22;17937;51.508;7.534;2022-11-14T03:40:41;3.90;99.90
31311;DHT22;17937;51.508;7.534;2022-11-14T03:43:07;3.90;99.90
31311;DHT22;17937;51.508;7.534;2022-11-14T03:45:34;3.90;99.90
31311;DHT22;17937;51.508;7.534;2022-11-14T03:48:00;3.90;99.90
31311;DHT22;17937;51.508;7.534;2022-11-14T03:50:25;3.80;99.90
31311;DHT22;17937;51.508;7.534;2022-11-14T03:52:51;3.80;99.90
31311;DHT22;17937;51.508;7.534;2022-11-14T03:55:16;3.80;99.90
31311;DHT22;17937;51.508;7.534;2022-11-14T03:57:42;3.80;99.90
31311;DHT22;17937;51.508;7.534;2022-11-14T04:00:09;3.80;99.90
31311;DHT22;17937;51.508;7.534;2022-11-14T04:02:34;3.80;99.90
31311;DHT22;17937;51.508;7.534;2022-11-14T04:05:00;3.80;99.90
31311;DHT22;17937;51.508;7.534;2022-11-14T04:07:25;3.70;99.90
31311;DHT22;17937;51.508;7.534;2022-11-14T04:09:51;3.80;99.90
31311;DHT22;17937;51.508;7.534;2022-11-14T04:12:17;3.70;99.90
31311;DHT22;17937;51.508;7.534;2022-11-14T04:14:43;3.60;99.90
31311;DHT22;17937;51.508;7.534;2022-11-14T04:17:08;3.60;99.90
31311;DHT22;17937;51.508;7.534;2022-11-14T04:19:34;3.60;99.90
31311;DHT22;17937;51.508;7.534;2022-11-14T04:21:59;3.60;99.90
31311;DHT22;17937;51.508;7.534;2022-11-14T04:24:25;3.40;99.90
31311;DHT22;17937;51.508;7.534;2022-11-14T04:26:50;3.40;99.90
31311;DHT22;17937;51.508;7.534;2022-11-14T04:29:16;3.50;99.90
31311;DHT22;17937;51.508;7.534;2022-11-14T04:31:42;3.50;99.90
31311;DHT22;17937;51.508;7.534;2022-11-14T04:34:07;3.50;99.90
31311;DHT22;17937;51.508;7.534;2022-11-14T04:36:33;3.60;99.90
31311;DHT22;17937;51.508;7.534;2022-11-14T04:38:58;3.50;99.90
31311;DHT22;17937;51.508;7.534;2022-11-14T04:41:24;3.50;99.90
31311;DHT22;17937;51.508;7.534;2022-11-14T04:43:49;3.50;99.90
31311;DHT22;17937;51.508;7.534;2022-11-14T04:46:15;3.60;99.90
31311;DHT22;17937;51.508;7.534;2022-11-14T04:48:40;3.70;99.90
31311;DHT22;17937;51.508;7.534;2022-11-14T04:51:06;3.60;99.90
31311;DHT22;17937;51.508;7.534;2022-11-14T04:53:31;3.60;99.90
31311;DHT22;17937;51.508;7.534;2022-11-14T04:55:57;3.60;99.90
31311;DHT22;17937;51.508;7.534;2022-11-14T04:58:22;3.50;99.90
31311;DHT22;17937;51.508;7.534;2022-11-14T05:00:48;3.50;99.90
31311;DHT22;17937;51.508;7.534;2022-11-14T05:03:13;3.50;99.90
31311;DHT22;17937;51.508;7.534;2022-11-14T05:05:39;3.40;99.90
31311;DHT22;17937;51.508;7.534;2022-11-14T05:08:05;3.50;99.90
31311;DHT22;17937;51.508;7.534;2022-11-14T05:10:30;3.50;99.90
31311;DHT22;17937;51.508;7.534;2022-11-14T05:12:56;3.50;99.90
31311;DHT22;17937;51.508;7.534;2022-11-14T05:15:21;3.50;99.90
31311;DHT22;17937;51.508;7.534;2022-11-14T05:17:47;3.50;99.90
31311;DHT22;17937;51.508;7.534;2022-11-14T05:20:13;3.50;99.90
31311;DHT22;17937;51.508;7.534;2022-11-14T05:22:38;3.50;99.90
31311;DHT22;17937;51.508;7.534;2022-11-14T05:25:05;3.60;99.90
31311;DHT22;17937;51.508;7.534;2022-11-14T05:27:31;3.50;99.90
31311;DHT22;17937;51.508;7.534;2022-11-14T05:29:56;3.50;99.90
31311;DHT22;17937;51.508;7.534;2022-11-14T05:32:22;3.50;99.90
31311;DHT22;17937;51.508;7.534;2022-11-14T05:34:47;3.50;99.90
31311;DHT22;17937;51.508;7.534;2022-11-14T05:37:13;3.50;99.90
31311;DHT22;17937;51.508;7.534;2022-11-14T05:39:38;3.40;99.90
31311;DHT22;17937;51.508;7.534;2022-11-14T05:42:04;3.30;99.90
31311;DHT22;17937;51.508;7.534;2022-11-14T05:44:31;3.30;99.90
31311;DHT22;17937;51.508;7.534;2022-11-14T05:46:56;3.30;99.90
31311;DHT22;17937;51.508;7.534;2022-11-14T05:49:22;3.40;99.90
31311;DHT22;17937;51.508;7.534;2022-11-14T05:51:48;3.30;99.90
31311;DHT22;17937;51.508;7.534;2022-11-14T05:54:13;3.30;99.90
31311;DHT22;17937;51.508;7.534;2022-11-14T05:56:39;3.30;99.90
31311;DHT22;17937;51.508;7.534;2022-11-14T05:59:04;3.30;99.90
31311;DHT22;17937;51.508;7.534;2022-11-14T06:01:30;3.30;99.90
31311;DHT22;17937;51.508;7.534;2022-11-14T06:03:56;3.30;99.90
31311;DHT22;17937;51.508;7.534;2022-11-14T06:06:21;3.30;99.90
31311;DHT22;17937;51.508;7.534;2022-11-14T06:08:47;3.30;99.90
31311;DHT22;17937;51.508;7.534;2022-11-14T06:11:15;3.30;99.90
31311;DHT22;17937;51.508;7.534;2022-11-14T06:13:42;3.30;99.90
31311;DHT22;17937;51.508;7.534;2022-11-14T06:16:18;3.30;99.90
31311;DHT22;17937;51.508;7.534;2022-11-14T06:18:44;3.20;99.90
31311;DHT22;17937;51.508;7.534;2022-11-14T06:21:17;3.10;99.90
31311;DHT22;17937;51.508;7.534;2022-11-14T06:23:42;3.10;99.90
31311;DHT22;17937;51.508;7.534;2022-11-14T06:26:23;3.20;99.90
31311;DHT22;17937;51.508;7.534;2022-11-14T06:28:50;3.50;99.90
31311;DHT22;17937;51.508;7.534;2022-11-14T06:31:18;3.60;99.90
31311;DHT22;17937;51.508;7.534;2022-11-14T06:33:44;3.60;99.90
31311;DHT22;17937;51.508;7.534;2022-11-14T06:36:10;3.60;99.90
31311;DHT22;17937;51.508;7.534;2022-11-14T06:38:37;3.70;99.90
31311;DHT22;17937;51.508;7.534;2022-11-14T06:43:34;3.70;99.90
31311;DHT22;17937;51.508;7.534;2022-11-14T06:46:00;3.80;99.90
31311;DHT22;17937;51.508;7.534;2022-11-14T06:48:26;3.80;99.90
31311;DHT22;17937;51.508;7.534;2022-11-14T06:50:53;4.00;99.90
31311;DHT22;17937;51.508;7.534;2022-11-14T06:53:19;4.10;99.90
31311;DHT22;17937;51.508;7.534;2022-11-14T06:56:05;4.20;99.90
31311;DHT22;17937;51.508;7.534;2022-11-14T06:58:34;4.30;99.90
31311;DHT22;17937;51.508;7.534;2022-11-14T07:01:05;4.50;99.90
31311;DHT22;17937;51.508;7.534;2022-11-14T07:03:31;4.60;99.90
31311;DHT22;17937;51.508;7.534;2022-11-14T07:05:58;4.60;99.90
31311;DHT22;17937;51.508;7.534;2022-11-14T07:08:24;4.60;99.90
31311;DHT22;17937;51.508;7.534;2022-11-14T07:10:50;4.50;99.90
31311;DHT22;17937;51.508;7.534;2022-11-14T07:13:15;4.60;99.90
31311;DHT22;17937;51.508;7.534;2022-11-14T07:15:49;4.60;99.90
31311;DHT22;17937;51.508;7.534;2022-11-14T07:18:15;4.70;99.90
31311;DHT22;17937;51.508;7.534;2022-11-14T07:20:40;4.80;99.90
31311;DHT22;17937;51.508;7.534;2022-11-14T07:23:06;4.70;99.90
31311;DHT22;17937;51.508;7.534;2022-11-14T07:25:32;4.80;99.90
31311;DHT22;17937;51.508;7.534;2022-11-14T07:27:57;4.90;99.90
31311;DHT22;17937;51.508;7.534;2022-11-14T07:30:23;4.90;99.90
31311;DHT22;17937;51.508;7.534;2022-11-14T07:32:57;4.90;99.90
31311;DHT22;17937;51.508;7.534;2022-11-14T07:35:23;5.00;99.90
31311;DHT22;17937;51.508;7.534;2022-11-14T07:37:49;5.00;99.90
31311;DHT22;17937;51.508;7.534;2022-11-14T07:40:15;5.30;99.90
31311;DHT22;17937;51.508;7.534;2022-11-14T07:42:41;5.50;99.90
31311;DHT22;17937;51.508;7.534;2022-11-14T07:45:08;5.70;99.90
31311;DHT22;17937;51.508;7.534;2022-11-14T07:47:33;5.80;99.90
31311;DHT22;17937;51.508;7.534;2022-11-14T07:49:59;5.80;99.90
31311;DHT22;17937;51.508;7.534;2022-11-14T07:52:24;6.00;99.90
31311;DHT22;17937;51.508;7.534;2022-11-14T07:54:50;6.10;99.90
31311;DHT22;17937;51.508;7.534;2022-11-14T07:57:16;6.20;99.90
31311;DHT22;17937;51.508;7.534;2022-11-14T07:59:41;6.40;99.90
31311;DHT22;17937;51.508;7.534;2022-11-14T08:02:11;6.80;99.90
31311;DHT22;17937;51.508;7.534;2022-11-14T08:04:38;7.20;99.90
31311;DHT22;17937;51.508;7.534;2022-11-14T08:07:04;7.80;99.90
31311;DHT22;17937;51.508;7.534;2022-11-14T08:09:29;8.50;99.90
31311;DHT22;17937;51.508;7.534;2022-11-14T08:11:55;9.30;99.90
31311;DHT22;17937;51.508;7.534;2022-11-14T08:14:21;10.10;99.90
31311;DHT22;17937;51.508;7.534;2022-11-14T08:16:46;11.00;99.90
31311;DHT22;17937;51.508;7.534;2022-11-14T08:19:12;11.60;99.90
31311;DHT22;17937;51.508;7.534;2022-11-14T08:21:37;12.20;99.90
31311;DHT22;17937;51.508;7.534;2022-11-14T08:24:03;12.80;99.90
31311;DHT22;17937;51.508;7.534;2022-11-14T08:26:29;13.30;99.90
31311;DHT22;17937;51.508;7.534;2022-11-14T08:28:54;13.50;99.90
31311;DHT22;17937;51.508;7.534;2022-11-14T08:31:20;13.90;99.90
31311;DHT22;17937;51.508;7.534;2022-11-14T08:33:46;14.30;99.90
31311;DHT22;17937;51.508;7.534;2022-11-14T08:36:14;14.80;99.90
31311;DHT22;17937;51.508;7.534;2022-11-14T08:38:40;15.70;99.90
31311;DHT22;17937;51.508;7.534;2022-11-14T08:41:05;16.20;99.90
31311;DHT22;17937;51.508;7.534;2022-11-14T08:43:31;16.60;99.90
31311;DHT22;17937;51.508;7.534;2022-11-14T08:45:58;17.00;99.90
31311;DHT22;17937;51.508;7.534;2022-11-14T08:48:23;17.20;99.90
31311;DHT22;17937;51.508;7.534;2022-11-14T08:50:49;17.30;99.90
31311;DHT22;17937;51.508;7.534;2022-11-14T08:53:15;17.50;99.90
31311;DHT22;17937;51.508;7.534;2022-11-14T08:55:44;17.80;99.90
31311;DHT22;17937;51.508;7.534;2022-11-14T08:58:10;17.60;99.90
31311;DHT22;17937;51.508;7.534;2022-11-14T09:00:36;17.50;99.90
31311;DHT22;17937;51.508;7.534;2022-11-14T09:03:10;17.60;99.90
31311;DHT22;17937;51.508;7.534;2022-11-14T09:05:38;17.50;99.90
31311;DHT22;17937;51.508;7.534;2022-11-14T09:08:04;17.50;99.90
31311;DHT22;17937;51.508;7.534;2022-11-14T09:10:29;17.50;99.90
31311;DHT22;17937;51.508;7.534;2022-11-14T09:12:59;17.50;99.90
31311;DHT22;17937;51.508;7.534;2022-11-14T09:15:28;17.20;99.90
31311;DHT22;17937;51.508;7.534;2022-11-14T09:17:55;16.20;99.90
31311;DHT22;17937;51.508;7.534;2022-11-14T09:20:25;15.20;99.90
31311;DHT22;17937;51.508;7.534;2022-11-14T09:22:50;14.50;99.90
31311;DHT22;17937;51.508;7.534;2022-11-14T09:25:19;14.40;99.90
31311;DHT22;17937;51.508;7.534;2022-11-14T09:27:46;14.70;99.90
31311;DHT22;17937;51.508;7.534;2022-11-14T09:30:12;14.90;99.90
31311;DHT22;17937;51.508;7.534;2022-11-14T09:32:38;15.20;99.90
31311;DHT22;17937;51.508;7.534;2022-11-14T09:35:04;15.10;99.90
31311;DHT22;17937;51.508;7.534;2022-11-14T09:37:30;14.80;99.90
31311;DHT22;17937;51.508;7.534;2022-11-14T09:39:56;14.60;99.90
31311;DHT22;17937;51.508;7.534;2022-11-14T09:47:36;14.40;99.90
31311;DHT22;17937;51.508;7.534;2022-11-14T09:50:19;14.20;99.90
31311;DHT22;17937;51.508;7.534;2022-11-14T09:52:52;13.90;99.90
31311;DHT22;17937;51.508;7.534;2022-11-14T09:55:37;13.40;99.90
31311;DHT22;17937;51.508;7.534;2022-11-14T09:58:04;12.90;99.90
31311;DHT22;17937;51.508;7.534;2022-11-14T10:00:43;12.50;99.90
31311;DHT22;17937;51.508;7.534;2022-11-14T10:11:11;11.10;99.90
31311;DHT22;17937;51.508;7.534;2022-11-14T10:18:52;10.40;99.90
31311;DHT22;17937;51.508;7.534;2022-11-14T10:27:42;10.00;99.90
31311;DHT22;17937;51.508;7.534;2022-11-14T10:30:15;9.80;99.90
31311;DHT22;17937;51.508;7.534;2022-11-14T10:40:45;9.80;99.90
31311;DHT22;17937;51.508;7.534;2022-11-14T10:45:51;9.80;99.90
31311;DHT22;17937;51.508;7.534;2022-11-14T10:50:57;9.70;99.90
31311;DHT22;17937;51.508;7.534;2022-11-14T10:56:10;9.60;99.90
31311;DHT22;17937;51.508;7.534;2022-11-14T10:58:35;9.60;99.90
31311;DHT22;17937;51.508;7.534;2022-11-14T11:01:40;9.60;99.90
31311;DHT22;17937;51.508;7.534;2022-11-14T11:04:30;9.70;99.90
31311;DHT22;17937;51.508;7.534;2022-11-14T11:09:37;9.90;99.90
31311;DHT22;17937;51.508;7.534;2022-11-14T11:12:43;10.00;99.90
31311;DHT22;17937;51.508;7.534;2022-11-14T11:15:25;10.10;99.90
31311;DHT22;17937;51.508;7.534;2022-11-14T11:20:34;10.30;99.90
31311;DHT22;17937;51.508;7.534;2022-11-14T11:23:06;10.40;99.90
31311;DHT22;17937;51.508;7.534;2022-11-14T11:25:39;10.60;99.90
31311;DHT22;17937;51.508;7.534;2022-11-14T11:28:13;10.90;99.90
31311;DHT22;17937;51.508;7.534;2022-11-14T11:30:39;11.20;99.90
31311;DHT22;17937;51.508;7.534;2022-11-14T11:33:29;11.30;99.90
31311;DHT22;17937;51.508;7.534;2022-11-14T11:36:00;11.50;99.90
31311;DHT22;17937;51.508;7.534;2022-11-14T11:38:29;11.70;99.90
31311;DHT22;17937;51.508;7.534;2022-11-14T11:41:05;11.90;99.90
31311;DHT22;17937;51.508;7.534;2022-11-14T11:43:46;12.00;99.90
31311;DHT22;17937;51.508;7.534;2022-11-14T11:46:35;12.10;99.90
31311;DHT22;17937;51.508;7.534;2022-11-14T11:49:17;12.20;99.90
31311;DHT22;17937;51.508;7.534;2022-11-14T11:51:44;12.20;99.90
31311;DHT22;17937;51.508;7.534;2022-11-14T11:54:21;12.30;99.90
31311;DHT22;17937;51.508;7.534;2022-11-14T11:56:53;12.30;99.90
31311;DHT22;17937;51.508;7.534;2022-11-14T11:59:27;12.50;99.90
31311;DHT22;17937;51.508;7.534;2022-11-14T12:04:43;12.50;99.90
31311;DHT22;17937;51.508;7.534;2022-11-14T12:07:14;12.40;99.90
31311;DHT22;17937;51.508;7.534;2022-11-14T12:09:41;12.50;99.90
31311;DHT22;17937;51.508;7.534;2022-11-14T12:20:55;12.60;99.90
31311;DHT22;17937;51.508;7.534;2022-11-14T12:26:05;12.70;99.90
31311;DHT22;17937;51.508;7.534;2022-11-14T12:29:19;12.50;99.90
31311;DHT22;17937;51.508;7.534;2022-11-14T12:31:40;12.50;99.90
31311;DHT22;17937;51.508;7.534;2022-11-14T12:34:17;12.50;99.90
31311;DHT22;17937;51.508;7.534;2022-11-14T12:36:46;12.40;99.90
31311;DHT22;17937;51.508;7.534;2022-11-14T12:39:23;12.30;99.90
31311;DHT22;17937;51.508;7.534;2022-11-14T12:41:49;12.20;99.90
31311;DHT22;17937;51.508;7.534;2022-11-14T13:03:35;12.30;99.90
31311;DHT22;17937;51.508;7.534;2022-11-14T13:06:09;12.40;99.90
31311;DHT22;17937;51.508;7.534;2022-11-14T13:11:40;12.40;99.90
31311;DHT22;17937;51.508;7.534;2022-11-14T13:14:25;12.40;99.90
31311;DHT22;17937;51.508;7.534;2022-11-14T13:23:04;11.90;99.90
31311;DHT22;17937;51.508;7.534;2022-11-14T13:25:30;11.70;99.90
31311;DHT22;17937;51.508;7.534;2022-11-14T13:28:58;11.70;99.90
31311;DHT22;17937;51.508;7.534;2022-11-14T13:31:20;11.90;99.90
31311;DHT22;17937;51.508;7.534;2022-11-14T13:33:52;12.00;99.90
31311;DHT22;17937;51.508;7.534;2022-11-14T13:36:51;12.00;99.90
31311;DHT22;17937;51.508;7.534;2022-11-14T13:39:29;12.10;99.90
31311;DHT22;17937;51.508;7.534;2022-11-14T13:42:07;12.00;99.90
31311;DHT22;17937;51.508;7.534;2022-11-14T13:47:18;11.90;99.90
31311;DHT22;17937;51.508;7.534;2022-11-14T13:49:54;11.80;99.90
31311;DHT22;17937;51.508;7.534;2022-11-14T13:52:21;11.70;99.90
31311;DHT22;17937;51.508;7.534;2022-11-14T13:54:48;11.70;99.90
31311;DHT22;17937;51.508;7.534;2022-11-14T13:57:30;11.60;99.90
31311;DHT22;17937;51.508;7.534;2022-11-14T14:00:07;11.50;99.90
31311;DHT22;17937;51.508;7.534;2022-11-14T14:09:05;11.50;99.90
31311;DHT22;17937;51.508;7.534;2022-11-14T14:17:01;11.60;99.90
31311;DHT22;17937;51.508;7.534;2022-11-14T14:25:33;11.50;99.90
31311;DHT22;17937;51.508;7.534;2022-11-14T14:33:44;11.30;99.90
31311;DHT22;17937;51.508;7.534;2022-11-14T14:36:27;11.30;99.90
31311;DHT22;17937;51.508;7.534;2022-11-14T14:39:14;11.20;99.90
31311;DHT22;17937;51.508;7.534;2022-11-14T14:41:40;11.10;99.90
31311;DHT22;17937;51.508;7.534;2022-11-14T14:44:10;11.10;99.90
31311;DHT22;17937;51.508;7.534;2022-11-14T14:46:41;11.10;99.90
31311;DHT22;17937;51.508;7.534;2022-11-14T14:49:07;11.00;99.90
31311;DHT22;17937;51.508;7.534;2022-11-14T14:51:35;10.90;99.90
31311;DHT22;17937;51.508;7.534;2022-11-14T14:54:02;11.00;99.90
31311;DHT22;17937;51.508;7.534;2022-11-14T14:56:28;10.90;99.90
31311;DHT22;17937;51.508;7.534;2022-11-14T14:58:54;10.90;99.90
31311;DHT22;17937;51.508;7.534;2022-11-14T15:01:30;10.90;99.90
31311;DHT22;17937;51.508;7.534;2022-11-14T15:04:01;10.90;99.90
31311;DHT22;17937;51.508;7.534;2022-11-14T15:09:13;10.80;99.90
31311;DHT22;17937;51.508;7.534;2022-11-14T15:11:43;10.70;99.90
31311;DHT22;17937;51.508;7.534;2022-11-14T15:14:16;10.70;99.90
31311;DHT22;17937;51.508;7.534;2022-11-14T15:16:43;10.60;99.90
31311;DHT22;17937;51.508;7.534;2022-11-14T15:19:13;10.60;99.90
31311;DHT22;17937;51.508;7.534;2022-11-14T15:21:39;10.60;99.90
31311;DHT22;17937;51.508;7.534;2022-11-14T15:26:43;10.60;99.90
31311;DHT22;17937;51.508;7.534;2022-11-14T15:32:04;10.50;99.90
31311;DHT22;17937;51.508;7.534;2022-11-14T15:34:37;10.60;99.90
31311;DHT22;17937;51.508;7.534;2022-11-14T15:39:39;10.60;99.90
31311;DHT22;17937;51.508;7.534;2022-11-14T15:44:49;10.40;99.90
31311;DHT22;17937;51.508;7.534;2022-11-14T15:47:24;10.40;99.90
31311;DHT22;17937;51.508;7.534;2022-11-14T15:52:54;10.40;99.90
31311;DHT22;17937;51.508;7.534;2022-11-14T15:55:22;10.40;99.90
31311;DHT22;17937;51.508;7.534;2022-11-14T15:57:48;10.40;99.90
31311;DHT22;17937;51.508;7.534;2022-11-14T16:00:15;10.40;99.90
31311;DHT22;17937;51.508;7.534;2022-11-14T16:02:50;10.30;99.90
31311;DHT22;17937;51.508;7.534;2022-11-14T16:05:18;10.30;99.90
31311;DHT22;17937;51.508;7.534;2022-11-14T16:07:45;10.30;99.90
31311;DHT22;17937;51.508;7.534;2022-11-14T16:10:16;10.20;99.90
31311;DHT22;17937;51.508;7.534;2022-11-14T16:12:42;10.10;99.90
31311;DHT22;17937;51.508;7.534;2022-11-14T16:15:07;10.10;99.90
31311;DHT22;17937;51.508;7.534;2022-11-14T16:17:35;10.10;99.90
31311;DHT22;17937;51.508;7.534;2022-11-14T16:20:05;10.10;99.90
31311;DHT22;17937;51.508;7.534;2022-11-14T16:22:31;10.10;99.90
31311;DHT22;17937;51.508;7.534;2022-11-14T16:24:59;10.10;99.90
31311;DHT22;17937;51.508;7.534;2022-11-14T16:27:25;10.00;99.90
31311;DHT22;17937;51.508;7.534;2022-11-14T16:29:51;10.00;99.90
31311;DHT22;17937;51.508;7.534;2022-11-14T16:32:16;10.00;99.90
31311;DHT22;17937;51.508;7.534;2022-11-14T16:34:42;10.00;99.90
31311;DHT22;17937;51.508;7.534;2022-11-14T16:37:11;10.10;99.90
31311;DHT22;17937;51.508;7.534;2022-11-14T16:39:38;10.10;99.90
31311;DHT22;17937;51.508;7.534;2022-11-14T16:42:03;10.00;99.90
31311;DHT22;17937;51.508;7.534;2022-11-14T16:44:29;10.00;99.90
31311;DHT22;17937;51.508;7.534;2022-11-14T16:46:55;10.00;99.90
31311;DHT22;17937;51.508;7.534;2022-11-14T16:49:21;10.00;99.90
31311;DHT22;17937;51.508;7.534;2022-11-14T16:51:48;10.00;99.90
31311;DHT22;17937;51.508;7.534;2022-11-14T16:54:14;10.00;99.90
31311;DHT22;17937;51.508;7.534;2022-11-14T16:56:40;10.00;99.90
31311;DHT22;17937;51.508;7.534;2022-11-14T16:59:08;10.00;99.90
31311;DHT22;17937;51.508;7.534;2022-11-14T17:01:33;10.00;99.90
31311;DHT22;17937;51.508;7.534;2022-11-14T17:03:59;10.00;99.90
31311;DHT22;17937;51.508;7.534;2022-11-14T17:06:26;10.00;99.90
31311;DHT22;17937;51.508;7.534;2022-11-14T17:08:59;10.00;99.90
31311;DHT22;17937;51.508;7.534;2022-11-14T17:11:25;10.00;99.90
31311;DHT22;17937;51.508;7.534;2022-11-14T17:13:51;10.00;99.90
31311;DHT22;17937;51.508;7.534;2022-11-14T17:16:18;10.00;99.90
31311;DHT22;17937;51.508;7.534;2022-11-14T17:18:43;9.90;99.90
31311;DHT22;17937;51.508;7.534;2022-11-14T17:21:11;10.00;99.90
31311;DHT22;17937;51.508;7.534;2022-11-14T17:23:37;10.00;99.90
31311;DHT22;17937;51.508;7.534;2022-11-14T17:26:08;10.00;99.90
31311;DHT22;17937;51.508;7.534;2022-11-14T17:28:34;10.00;99.90
31311;DHT22;17937;51.508;7.534;2022-11-14T17:31:07;10.00;99.90
31311;DHT22;17937;51.508;7.534;2022-11-14T17:33:33;10.00;99.90
31311;DHT22;17937;51.508;7.534;2022-11-14T17:36:07;10.00;99.90
31311;DHT22;17937;51.508;7.534;2022-11-14T17:38:34;10.00;99.90
31311;DHT22;17937;51.508;7.534;2022-11-14T17:41:00;10.00;99.90
31311;DHT22;17937;51.508;7.534;2022-11-14T17:43:30;10.00;99.90
31311;DHT22;17937;51.508;7.534;2022-11-14T17:45:56;10.00;99.90
31311;DHT22;17937;51.508;7.534;2022-11-14T17:48:22;10.00;99.90
31311;DHT22;17937;51.508;7.534;2022-11-14T17:50:48;10.00;99.90
31311;DHT22;17937;51.508;7.534;2022-11-14T17:53:13;10.00;99.90
31311;DHT22;17937;51.508;7.534;2022-11-14T17:55:39;10.00;99.90
31311;DHT22;17937;51.508;7.534;2022-11-14T17:58:05;10.10;99.90
31311;DHT22;17937;51.508;7.534;2022-11-14T18:00:30;10.10;99.90
31311;DHT22;17937;51.508;7.534;2022-11-14T18:02:56;10.20;99.90
31311;DHT22;17937;51.508;7.534;2022-11-14T18:05:22;10.20;99.90